SBSV/SSA METAR and TAF weather

Enter ICAO airport designator
Station Type Date Time Source
SBSV METAR 2018/12/13 21:00 UTC NOAA

SBSV 132100Z 09009KT 9999 VCSH BKN017 FEW020TCU 28/23 Q1015


Station Type Date Time Source
SBSV Decoded METAR 2018/12/13 21:00 UTC NOAA

Salvador Aeroporto , Brazil (SBSV) 12-54S 038-20W 13M
Dec 13, 2018 - 04:00 PM EST / 2018.12.13 2100 UTC
Wind: from the E (090 degrees) at 10 MPH (9 KT):0
Visibility: greater than 7 mile(s):0
Sky conditions: mostly cloudy
Weather: showers in the vicinity; Towering cumulus clouds observed
Temperature: 82 F (28 C)
Dew Point: 73 F (23 C)
Relative Humidity: 74%
Pressure (altimeter): 29.97 in. Hg (1015 hPa)
ob: SBSV 132100Z 09009KT 9999 VCSH BKN017 FEW020TCU 28/23 Q1015
cycle: 21

Station Type Date Time Source
SBSV TAF 2018/12/13 18:03 UTC NOAA

TAF SBSV 131600Z 1318/1418 10010KT 8000 SCT020 TN27/1408Z TX30/1415Z
RMK PEI


Example: see airport list